Date,TemperatureHighF,TemperatureAvgF,TemperatureLowF,DewpointHighF,DewpointAvgF,DewpointLowF,HumidityHigh,HumidityAvg,HumidityLow,PressureMaxIn,PressureMinIn,WindSpeedMaxMPH,WindSpeedAvgMPH,GustSpeedMaxMPH,PrecipitationSumIn
2013-4-1,74.1,64.3,58.6,61.4,57.8,54.4,94,81,52,29.89,29.80,9,4,16,0.00
2013-4-2,63.8,55.7,49.3,55.0,42.0,32.8,85,62,38,30.13,29.88,10,4,15,0.00
2013-4-3,60.8,53.8,48.5,50.4,41.9,28.4,92,67,36,30.22,30.04,11,4,15,0.00
2013-4-4,55.8,50.4,46.4,54.4,46.3,40.3,95,86,66,30.23,29.79,11,5,14,0.00
2013-4-5,58.5,48.7,42.3,49.6,44.8,40.6,95,87,69,29.99,29.81,7,3,11,0.00
2013-4-6,66.1,53.6,41.9,51.2,43.6,35.5,96,72,37,30.23,29.99,11,4,14,0.00
2013-4-7,69.9,57.2,40.7,57.6,49.6,38.6,93,77,51,30.24,30.12,10,3,14,0.00
2013-4-8,76.5,64.9,52.4,59.9,56.8,51.0,96,77,50,30.17,30.08,14,3,19,0.00
2013-4-9,79.9,68.7,57.4,65.2,60.7,56.1,96,78,49,30.20,30.09,9,3,12,0.00
2013-4-10,80.8,69.8,61.4,65.6,61.9,57.7,95,78,53,30.14,30.00,12,6,17,0.00
2013-4-11,80.1,70.6,62.5,70.4,65.8,60.7,96,86,63,30.00,29.83,13,6,15,0.00
2013-4-12,81.4,71.9,67.3,71.7,68.3,65.2,95,89,71,29.84,29.66,13,8,18,0.00
2013-4-13,73.8,63.8,55.6,67.4,52.7,45.1,95,69,37,30.00,29.76,10,4,12,0.00
2013-4-14,72.9,62.6,50.7,60.5,55.6,49.6,97,80,49,30.07,29.97,9,3,13,0.00
2013-4-15,71.0,66.2,61.8,63.0,61.3,58.9,94,84,73,30.14,29.87,16,5,18,0.00
2013-4-16,77.3,66.8,58.0,64.6,61.1,56.8,96,83,63,30.23,30.13,8,2,10,0.00
2013-4-17,79.6,68.1,57.3,65.9,61.4,56.2,97,81,55,30.21,30.11,9,2,13,0.00
2013-4-18,76.8,68.3,60.6,67.5,63.5,59.5,97,86,62,30.15,30.02,12,4,15,0.00
2013-4-19,78.3,72.5,67.0,71.7,68.6,64.5,95,88,78,30.02,29.83,15,8,25,0.00
2013-4-20,67.6,57.0,48.8,66.1,49.8,40.0,95,78,50,30.22,29.86,9,4,12,0.00
2013-4-21,67.9,54.2,43.4,49.0,43.9,40.9,91,71,44,30.35,30.21,13,5,17,0.00
2013-4-22,66.2,55.6,44.9,50.4,45.1,36.0,84,69,56,30.33,30.12,11,8,16,0.00
2013-4-23,66.8,57.3,50.1,55.6,51.3,47.6,92,81,64,30.18,30.10,11,4,13,0.00
2013-4-24,74.6,62.7,49.4,61.9,56.0,48.0,96,80,62,30.16,30.02,10,4,16,0.00
2013-4-25,76.6,66.2,56.7,64.7,60.9,54.5,93,84,64,30.22,30.04,8,3,12,0.00
2013-4-26,72.3,60.6,49.4,54.5,47.6,35.2,95,67,31,30.37,30.21,11,3,13,0.00
2013-4-27,73.9,61.8,51.7,55.9,48.4,42.1,91,66,33,30.32,30.22,9,3,15,0.00
2013-4-28,71.5,64.1,55.7,61.7,57.6,51.7,92,80,68,30.22,30.04,12,6,18,0.00
2013-4-29,70.9,65.6,63.0,64.4,62.2,59.9,96,89,74,30.05,29.94,9,3,12,0.00
2013-4-30,74.0,66.4,61.8,65.7,62.5,60.7,97,88,72,30.08,29.94,8,3,11,0.07